createdAt,value
2018-05-23T00:03:23.719Z,20.40
2018-05-23T00:06:56.204Z,20.40
2018-05-23T00:10:28.684Z,20.30
2018-05-23T00:14:01.160Z,20.30
2018-05-23T00:17:33.648Z,20.20
2018-05-23T00:21:06.126Z,20.20
2018-05-23T00:24:38.604Z,20.20
2018-05-23T00:28:11.091Z,20.10
2018-05-23T00:31:43.573Z,20.10
2018-05-23T00:35:16.052Z,20.10
2018-05-23T00:38:48.529Z,20.10
2018-05-23T00:42:21.008Z,20.10
2018-05-23T00:45:53.488Z,20.10
2018-05-23T00:49:25.968Z,20.00
2018-05-23T00:52:58.443Z,20.00
2018-05-23T00:56:30.920Z,19.90
2018-05-23T01:00:03.403Z,19.80
2018-05-23T01:03:35.889Z,19.70
2018-05-23T01:07:08.372Z,19.60
2018-05-23T01:10:40.856Z,19.60
2018-05-23T01:14:13.329Z,19.50
2018-05-23T01:17:45.817Z,19.50
2018-05-23T01:21:18.310Z,19.40
2018-05-23T01:24:50.789Z,19.40
2018-05-23T01:28:23.277Z,19.40
2018-05-23T01:31:55.760Z,19.30
2018-05-23T01:35:28.248Z,19.30
2018-05-23T01:39:01.492Z,19.30
2018-05-23T01:42:34.761Z,19.10
2018-05-23T01:46:07.244Z,19.10
2018-05-23T01:49:39.724Z,19.10
2018-05-23T01:53:12.214Z,19.10
2018-05-23T01:56:44.697Z,19.10
2018-05-23T02:00:17.183Z,19.00
2018-05-23T02:03:49.661Z,19.00
2018-05-23T02:07:22.145Z,19.00
2018-05-23T02:10:54.628Z,18.90
2018-05-23T02:14:27.118Z,18.90
2018-05-23T02:18:00.380Z,18.80
2018-05-23T02:21:32.865Z,18.80
2018-05-23T02:25:05.339Z,18.70
2018-05-23T02:28:37.832Z,18.60
2018-05-23T02:32:10.321Z,18.50
2018-05-23T02:35:42.801Z,18.40
2018-05-23T02:39:15.295Z,18.30
2018-05-23T02:42:47.782Z,18.30
2018-05-23T02:46:20.296Z,18.20
2018-05-23T02:49:53.557Z,18.20
2018-05-23T02:53:26.037Z,18.20
2018-05-23T02:56:58.532Z,18.20
2018-05-23T03:00:31.029Z,18.10
2018-05-23T03:04:04.282Z,18.00
2018-05-23T03:07:36.789Z,18.00
2018-05-23T03:11:09.285Z,18.00
2018-05-23T03:14:41.760Z,18.00
2018-05-23T03:18:14.243Z,17.90
2018-05-23T03:21:46.719Z,17.80
2018-05-23T03:25:19.207Z,17.80
2018-05-23T03:28:51.708Z,17.70
2018-05-23T03:32:24.960Z,17.60
2018-05-23T03:35:57.438Z,17.60
2018-05-23T03:39:29.920Z,17.60
2018-05-23T03:43:02.416Z,17.60
2018-05-23T03:46:34.925Z,17.60
2018-05-23T03:50:07.416Z,17.60
2018-05-23T03:53:40.673Z,17.50
2018-05-23T03:57:13.171Z,17.50
2018-05-23T04:00:57.392Z,17.50
2018-05-23T04:08:34.117Z,17.60
2018-05-23T04:12:06.613Z,17.60
2018-05-23T04:15:39.080Z,17.60
2018-05-23T04:19:11.568Z,17.70
2018-05-23T04:22:44.040Z,17.80
2018-05-23T04:26:16.532Z,17.90
2018-05-23T04:29:49.028Z,18.00
2018-05-23T04:33:21.520Z,18.00
2018-05-23T04:36:53.992Z,18.10
2018-05-23T04:40:26.481Z,18.20
2018-05-23T04:43:58.969Z,18.30
2018-05-23T04:47:31.453Z,18.40
2018-05-23T04:51:07.958Z,18.50
2018-05-23T04:54:40.479Z,18.70
2018-05-23T04:58:12.944Z,18.80
2018-05-23T05:01:45.508Z,19.00
2018-05-23T05:05:18.048Z,19.20
2018-05-23T05:08:50.554Z,19.30
2018-05-23T05:12:23.025Z,19.40
2018-05-23T05:15:55.532Z,19.50
2018-05-23T05:19:28.764Z,19.70
2018-05-23T05:23:01.260Z,19.70
2018-05-23T05:26:33.719Z,19.70
2018-05-23T05:30:06.203Z,19.70
2018-05-23T05:33:38.687Z,19.60
2018-05-23T05:37:11.172Z,19.60
2018-05-23T05:40:43.648Z,19.70
2018-05-23T05:44:16.136Z,19.70
2018-05-23T05:47:48.605Z,19.80
2018-05-23T05:51:21.101Z,19.90
2018-05-23T05:54:53.574Z,19.90
2018-05-23T05:58:26.064Z,19.90
2018-05-23T06:01:58.599Z,19.80
2018-05-23T06:05:31.027Z,19.80
2018-05-23T06:09:03.497Z,19.80
2018-05-23T06:12:35.978Z,19.80
2018-05-23T06:16:08.475Z,19.80
2018-05-23T06:19:40.956Z,19.80
2018-05-23T06:23:13.436Z,19.90
2018-05-23T06:26:45.918Z,19.90
2018-05-23T06:30:18.494Z,20.00
2018-05-23T06:33:50.896Z,20.10
2018-05-23T06:37:23.361Z,20.10
2018-05-23T06:40:55.842Z,20.10
2018-05-23T06:44:28.323Z,20.10
2018-05-23T06:48:00.797Z,20.20
2018-05-23T06:51:33.272Z,20.20
2018-05-23T06:55:05.766Z,20.30
2018-05-23T06:58:38.242Z,20.50
2018-05-23T07:02:10.719Z,20.60
2018-05-23T07:05:43.251Z,20.70
2018-05-23T07:09:15.671Z,20.80
2018-05-23T07:12:48.913Z,20.90
2018-05-23T07:16:21.387Z,20.90
2018-05-23T07:19:53.877Z,20.90
2018-05-23T07:23:26.351Z,21.00
2018-05-23T07:26:58.832Z,20.90
2018-05-23T07:30:31.310Z,21.00
2018-05-23T07:34:03.784Z,21.00
2018-05-23T07:37:36.263Z,21.20
2018-05-23T07:41:08.753Z,21.40
2018-05-23T07:44:41.224Z,21.40
2018-05-23T07:48:13.697Z,21.50
2018-05-23T07:51:46.169Z,21.40
2018-05-23T07:55:19.451Z,21.40
2018-05-23T07:58:51.899Z,21.40
2018-05-23T08:02:24.378Z,21.50
2018-05-23T08:05:56.841Z,21.40
2018-05-23T08:09:29.332Z,21.40
2018-05-23T08:13:01.822Z,21.40
2018-05-23T08:16:34.299Z,21.40
2018-05-23T08:20:06.777Z,21.30
2018-05-23T08:23:39.268Z,21.30
2018-05-23T08:27:11.751Z,21.30
2018-05-23T08:30:44.219Z,21.30
2018-05-23T08:34:16.763Z,21.30
2018-05-23T08:37:50.004Z,21.70
2018-05-23T08:41:22.485Z,21.60
2018-05-23T08:44:55.003Z,21.80
2018-05-23T08:48:27.441Z,21.80
2018-05-23T08:51:59.932Z,21.90
2018-05-23T08:55:32.417Z,21.90
2018-05-23T08:59:04.900Z,21.90
2018-05-23T09:02:37.384Z,21.90
2018-05-23T09:06:09.862Z,22.00
2018-05-23T09:09:42.335Z,22.10
2018-05-23T09:13:14.812Z,22.20
2018-05-23T09:16:47.303Z,22.30
2018-05-23T09:20:19.782Z,22.40
2018-05-23T09:23:52.260Z,22.50
2018-05-23T09:27:24.756Z,22.60
2018-05-23T09:30:57.235Z,22.80
2018-05-23T09:34:29.708Z,22.90
2018-05-23T09:38:02.185Z,23.00
2018-05-23T09:41:34.672Z,23.20
2018-05-23T09:45:07.192Z,23.20
2018-05-23T09:48:39.645Z,23.30
2018-05-23T09:52:12.120Z,23.40
2018-05-23T09:55:44.596Z,23.40
2018-05-23T09:59:17.069Z,23.50
2018-05-23T10:02:49.543Z,23.60
2018-05-23T10:06:22.028Z,23.70
2018-05-23T10:09:54.508Z,23.60
2018-05-23T10:13:27.074Z,23.70
2018-05-23T10:17:00.328Z,23.90
2018-05-23T10:20:32.807Z,23.90
2018-05-23T10:24:05.273Z,24.20
2018-05-23T10:27:37.749Z,24.40
2018-05-23T10:31:10.227Z,24.60
2018-05-23T10:34:42.708Z,24.90
2018-05-23T10:38:15.180Z,25.20
2018-05-23T10:41:47.659Z,25.40
2018-05-23T10:45:20.135Z,25.70
2018-05-23T10:48:53.376Z,26.00
2018-05-23T10:52:25.856Z,26.00
2018-05-23T10:55:58.337Z,26.20
2018-05-23T10:59:30.814Z,26.40
2018-05-23T11:03:03.305Z,26.50
2018-05-23T11:06:35.777Z,26.90
2018-05-23T11:10:08.272Z,27.30
2018-05-23T11:13:40.757Z,27.60
2018-05-23T11:17:13.279Z,27.70
2018-05-23T11:20:45.703Z,27.70
2018-05-23T11:24:18.179Z,27.60
2018-05-23T11:27:50.644Z,27.60
2018-05-23T11:31:23.119Z,27.70
2018-05-23T11:34:56.365Z,28.00
2018-05-23T11:38:28.840Z,28.00
2018-05-23T11:42:02.074Z,28.10
2018-05-23T11:45:34.562Z,28.00
2018-05-23T11:49:07.050Z,28.20
2018-05-23T11:52:40.283Z,28.20
2018-05-23T11:56:12.769Z,28.20
2018-05-23T11:59:45.248Z,28.10
2018-05-23T12:03:17.740Z,28.00
2018-05-23T12:06:50.208Z,27.90
2018-05-23T12:10:22.730Z,27.80
2018-05-23T12:13:55.189Z,27.80
2018-05-23T12:17:27.672Z,27.70
2018-05-23T12:21:00.152Z,27.60
2018-05-23T12:24:32.628Z,27.50
2018-05-23T12:28:05.108Z,27.50
2018-05-23T12:31:37.581Z,27.60
2018-05-23T12:35:10.059Z,27.60
2018-05-23T12:38:42.533Z,27.70
2018-05-23T12:42:15.011Z,27.80
2018-05-23T12:45:47.480Z,27.90
2018-05-23T12:49:20.724Z,28.00
2018-05-23T12:52:53.210Z,28.00
2018-05-23T12:56:25.676Z,27.80
2018-05-23T12:59:58.158Z,27.60
2018-05-23T13:03:30.653Z,27.50
2018-05-23T13:07:03.123Z,27.40
2018-05-23T13:10:35.598Z,27.40
2018-05-23T13:14:08.072Z,27.30
2018-05-23T13:17:40.553Z,27.00
2018-05-23T13:21:13.020Z,26.70
2018-05-23T13:24:46.273Z,26.40
2018-05-23T13:28:18.751Z,26.30
2018-05-23T13:31:51.240Z,26.10
2018-05-23T13:35:23.708Z,25.90
2018-05-23T13:38:56.250Z,25.70
2018-05-23T13:42:28.676Z,25.60
2018-05-23T13:46:01.150Z,25.40
2018-05-23T13:49:33.629Z,25.20
2018-05-23T13:53:06.115Z,24.90
2018-05-23T13:56:38.603Z,24.80
2018-05-23T14:00:11.507Z,24.70
2018-05-23T14:03:44.004Z,24.70
2018-05-23T14:07:16.492Z,24.70
2018-05-23T14:10:48.977Z,24.70
2018-05-23T14:14:21.453Z,24.70
2018-05-23T14:17:53.943Z,24.70
2018-05-23T14:21:27.201Z,24.70
2018-05-23T14:24:59.679Z,24.70
2018-05-23T14:28:32.186Z,24.70
2018-05-23T14:32:04.655Z,24.60
2018-05-23T14:35:37.138Z,24.50
2018-05-23T14:39:09.613Z,24.30
2018-05-23T14:42:42.091Z,24.20
2018-05-23T14:46:14.626Z,24.10
2018-05-23T14:49:47.862Z,23.90
2018-05-23T14:53:20.345Z,23.90
2018-05-23T14:56:52.825Z,23.80
2018-05-23T15:00:25.304Z,23.80
2018-05-23T15:03:57.781Z,23.90
2018-05-23T15:07:30.260Z,23.90
2018-05-23T15:11:02.741Z,24.00
2018-05-23T15:14:35.205Z,24.00
2018-05-23T15:18:08.445Z,23.90
2018-05-23T15:21:40.917Z,23.90
2018-05-23T15:25:13.397Z,23.90
2018-05-23T15:28:45.860Z,24.10
2018-05-23T15:32:18.343Z,24.40
2018-05-23T15:35:51.144Z,24.70
2018-05-23T15:39:23.617Z,24.70
2018-05-23T15:42:56.090Z,24.60
2018-05-23T15:46:28.566Z,24.50
2018-05-23T15:50:01.807Z,24.20
2018-05-23T15:53:34.297Z,24.20
2018-05-23T15:57:06.773Z,24.00
2018-05-23T16:00:39.248Z,23.90
2018-05-23T16:04:11.724Z,23.40
2018-05-23T16:07:44.188Z,22.90
2018-05-23T16:11:16.660Z,22.50
2018-05-23T16:14:49.966Z,21.70
2018-05-23T16:18:22.377Z,21.70
2018-05-23T16:21:54.853Z,21.40
2018-05-23T16:25:27.324Z,21.20
2018-05-23T16:28:59.810Z,21.10
2018-05-23T16:32:32.298Z,20.90
2018-05-23T16:36:04.779Z,20.70
2018-05-23T16:39:37.260Z,20.50
2018-05-23T16:43:09.729Z,20.30
2018-05-23T16:46:42.218Z,20.20
2018-05-23T16:50:14.699Z,20.00
2018-05-23T16:53:47.181Z,19.90
2018-05-23T16:57:19.657Z,19.80
2018-05-23T17:00:52.132Z,19.80
2018-05-23T17:04:24.610Z,19.90
2018-05-23T17:07:57.073Z,19.90
2018-05-23T17:11:30.319Z,20.00
2018-05-23T17:15:02.792Z,19.90
2018-05-23T17:18:35.268Z,20.00
2018-05-23T17:22:07.744Z,20.00
2018-05-23T17:25:40.216Z,20.00
2018-05-23T17:29:12.687Z,20.00
2018-05-23T17:32:45.933Z,20.00
2018-05-23T17:36:18.399Z,19.90
2018-05-23T17:39:50.876Z,19.90
2018-05-23T17:43:23.357Z,19.90
2018-05-23T17:46:55.823Z,19.80
2018-05-23T17:50:28.318Z,19.80
2018-05-23T17:54:00.798Z,19.70
2018-05-23T17:57:33.276Z,19.70
2018-05-23T18:01:05.743Z,19.60
2018-05-23T18:04:39.001Z,19.50
2018-05-23T18:08:11.481Z,19.50
2018-05-23T18:11:43.957Z,19.50
2018-05-23T18:15:16.448Z,19.40
2018-05-23T18:18:48.929Z,19.40
2018-05-23T18:22:22.932Z,19.20
2018-05-23T18:25:55.409Z,19.20
2018-05-23T18:29:27.957Z,19.30
2018-05-23T18:33:00.372Z,19.20
2018-05-23T18:36:32.835Z,19.30
2018-05-23T18:40:05.320Z,19.30
2018-05-23T18:43:37.813Z,19.30
2018-05-23T18:47:10.292Z,19.30
2018-05-23T18:50:42.759Z,19.30
2018-05-23T18:54:15.265Z,19.30
2018-05-23T18:57:47.744Z,19.30
2018-05-23T19:01:20.233Z,19.20
2018-05-23T19:04:52.701Z,19.10
2018-05-23T19:08:25.188Z,19.10
2018-05-23T19:11:57.668Z,19.10
2018-05-23T19:15:30.145Z,19.10
2018-05-23T19:19:02.624Z,19.10
2018-05-23T19:22:35.102Z,19.20
2018-05-23T19:26:07.585Z,19.20
2018-05-23T19:29:40.052Z,19.30
2018-05-23T19:33:12.528Z,19.30
2018-05-23T19:36:45.017Z,19.30
2018-05-23T19:40:17.497Z,19.30
2018-05-23T19:43:49.976Z,19.30
2018-05-23T19:47:22.546Z,19.30
2018-05-23T19:50:54.957Z,19.30
2018-05-23T19:54:27.426Z,19.30
2018-05-23T19:57:59.912Z,19.30
2018-05-23T20:01:32.387Z,19.20
2018-05-23T20:05:04.873Z,19.20
2018-05-23T20:08:37.370Z,19.20
2018-05-23T20:12:09.860Z,19.10
2018-05-23T20:15:42.344Z,19.10
2018-05-23T20:19:14.814Z,19.10
2018-05-23T20:22:47.295Z,19.20
2018-05-23T20:26:19.837Z,19.10
2018-05-23T20:29:52.271Z,19.10
2018-05-23T20:33:24.748Z,19.00
2018-05-23T20:36:57.227Z,19.10
2018-05-23T20:40:29.710Z,19.10
2018-05-23T20:44:02.187Z,19.10
2018-05-23T20:47:34.704Z,19.10
2018-05-23T20:51:07.188Z,19.10
2018-05-23T20:54:39.668Z,19.10
2018-05-23T20:58:12.144Z,19.10
2018-05-23T21:01:44.625Z,19.10
2018-05-23T21:05:17.217Z,19.00
2018-05-23T21:08:49.616Z,18.90
2018-05-23T21:12:22.095Z,18.80
2018-05-23T21:15:54.591Z,18.70
2018-05-23T21:19:27.930Z,18.70
2018-05-23T21:23:00.343Z,18.70
2018-05-23T21:26:32.827Z,18.70
2018-05-23T21:30:05.319Z,18.70
2018-05-23T21:33:37.792Z,18.70
2018-05-23T21:37:10.274Z,18.70
2018-05-23T21:40:42.769Z,18.60
2018-05-23T21:44:15.262Z,18.60
2018-05-23T21:47:48.496Z,18.60
2018-05-23T21:51:20.984Z,18.60
2018-05-23T21:54:53.472Z,18.60
2018-05-23T21:58:25.959Z,18.60
2018-05-23T22:01:58.436Z,18.50
2018-05-23T22:05:30.942Z,18.60
2018-05-23T22:09:03.424Z,18.50
2018-05-23T22:12:35.905Z,18.50
2018-05-23T22:16:08.392Z,18.60
2018-05-23T22:19:40.873Z,18.60
2018-05-23T22:23:13.366Z,18.70
2018-05-23T22:26:45.842Z,18.70
2018-05-23T22:30:18.412Z,18.70
2018-05-23T22:33:50.844Z,18.60
2018-05-23T22:37:23.320Z,18.60
2018-05-23T22:40:55.805Z,18.60
2018-05-23T22:44:28.286Z,18.60
2018-05-23T22:48:00.772Z,18.60
2018-05-23T22:51:33.247Z,18.60
2018-05-23T22:55:06.504Z,18.60
2018-05-23T22:58:38.991Z,18.60
2018-05-23T23:02:11.476Z,18.60
2018-05-23T23:05:43.956Z,18.60
2018-05-23T23:09:16.441Z,18.60
2018-05-23T23:12:48.932Z,18.60
2018-05-23T23:16:21.396Z,18.60
2018-05-23T23:19:53.883Z,18.60
2018-05-23T23:23:26.385Z,18.60
2018-05-23T23:26:58.869Z,18.60
2018-05-23T23:30:31.345Z,18.60
2018-05-23T23:34:03.824Z,18.60
2018-05-23T23:37:36.304Z,18.60
2018-05-23T23:41:08.783Z,18.60
2018-05-23T23:44:41.296Z,18.60
2018-05-23T23:48:14.544Z,18.70
2018-05-23T23:51:47.048Z,18.70
2018-05-23T23:55:19.521Z,18.70
2018-05-23T23:58:52.009Z,18.70
